sensor_id;sensor_type;location;lat;lon;timestamp;pressure;altitude;pressure_sealevel;temperature;humidity
49943;BME280;36011;53.362;58.948;2023-12-20T00:00:47;96663.94;;;-3.57;63.94
49943;BME280;36011;53.362;58.948;2023-12-20T00:03:48;96677.69;;;-3.58;63.17
49943;BME280;36011;53.362;58.948;2023-12-20T00:06:52;96680.13;;;-3.49;63.74
49943;BME280;36011;53.362;58.948;2023-12-20T00:09:54;96671.59;;;-3.51;63.64
49943;BME280;36011;53.362;58.948;2023-12-20T00:12:58;96682.84;;;-3.58;64.22
49943;BME280;36011;53.362;58.948;2023-12-20T00:16:00;96677.66;;;-3.57;64.69
49943;BME280;36011;53.362;58.948;2023-12-20T00:19:04;96676.84;;;-3.59;64.26
49943;BME280;36011;53.362;58.948;2023-12-20T00:22:09;96686.25;;;-3.56;64.75
49943;BME280;36011;53.362;58.948;2023-12-20T00:25:14;96692.06;;;-3.42;64.79
49943;BME280;36011;53.362;58.948;2023-12-20T00:28:21;96687.69;;;-3.37;64.78
49943;BME280;36011;53.362;58.948;2023-12-20T00:31:25;96680.94;;;-3.44;65.35
49943;BME280;36011;53.362;58.948;2023-12-20T00:34:29;96666.31;;;-3.39;65.18
49943;BME280;36011;53.362;58.948;2023-12-20T00:37:30;96657.00;;;-3.49;65.51
49943;BME280;36011;53.362;58.948;2023-12-20T00:40:36;96655.31;;;-3.50;65.43
49943;BME280;36011;53.362;58.948;2023-12-20T00:43:40;96640.06;;;-3.66;65.96
49943;BME280;36011;53.362;58.948;2023-12-20T00:46:44;96645.31;;;-3.75;66.14
49943;BME280;36011;53.362;58.948;2023-12-20T00:49:45;96647.09;;;-3.80;65.82
49943;BME280;36011;53.362;58.948;2023-12-20T00:52:49;96631.66;;;-3.80;66.07
49943;BME280;36011;53.362;58.948;2023-12-20T00:55:53;96635.13;;;-3.81;65.88
49943;BME280;36011;53.362;58.948;2023-12-20T00:58:57;96638.41;;;-3.70;65.92
49943;BME280;36011;53.362;58.948;2023-12-20T01:02:04;96641.91;;;-3.77;65.71
49943;BME280;36011;53.362;58.948;2023-12-20T01:05:08;96628.19;;;-3.76;65.76
49943;BME280;36011;53.362;58.948;2023-12-20T01:08:17;96631.00;;;-3.97;66.16
49943;BME280;36011;53.362;58.948;2023-12-20T01:11:23;96631.09;;;-4.03;66.20
49943;BME280;36011;53.362;58.948;2023-12-20T01:14:24;96626.75;;;-3.98;66.38
49943;BME280;36011;53.362;58.948;2023-12-20T01:17:25;96614.03;;;-4.08;66.65
49943;BME280;36011;53.362;58.948;2023-12-20T01:20:27;96601.91;;;-3.98;65.97
49943;BME280;36011;53.362;58.948;2023-12-20T01:23:32;96610.63;;;-4.11;66.15
49943;BME280;36011;53.362;58.948;2023-12-20T01:26:34;96604.88;;;-4.36;66.59
49943;BME280;36011;53.362;58.948;2023-12-20T01:29:35;96587.78;;;-4.37;67.21
49943;BME280;36011;53.362;58.948;2023-12-20T01:32:42;96593.66;;;-4.26;67.45
49943;BME280;36011;53.362;58.948;2023-12-20T01:35:46;96585.22;;;-4.36;67.22
49943;BME280;36011;53.362;58.948;2023-12-20T01:38:50;96603.00;;;-4.19;66.96
49943;BME280;36011;53.362;58.948;2023-12-20T01:41:51;96601.53;;;-4.41;67.57
49943;BME280;36011;53.362;58.948;2023-12-20T01:44:55;96606.50;;;-4.26;66.96
49943;BME280;36011;53.362;58.948;2023-12-20T01:48:01;96592.13;;;-4.42;67.54
49943;BME280;36011;53.362;58.948;2023-12-20T01:51:04;96611.75;;;-4.35;67.75
49943;BME280;36011;53.362;58.948;2023-12-20T01:54:08;96612.50;;;-4.25;67.40
49943;BME280;36011;53.362;58.948;2023-12-20T01:57:12;96620.09;;;-4.15;67.10
49943;BME280;36011;53.362;58.948;2023-12-20T02:00:14;96621.94;;;-4.29;67.31
49943;BME280;36011;53.362;58.948;2023-12-20T02:03:19;96619.34;;;-4.24;67.23
49943;BME280;36011;53.362;58.948;2023-12-20T02:06:23;96629.59;;;-4.21;67.04
49943;BME280;36011;53.362;58.948;2023-12-20T02:09:29;96625.34;;;-4.24;67.45
49943;BME280;36011;53.362;58.948;2023-12-20T02:12:31;96623.56;;;-4.22;67.50
49943;BME280;36011;53.362;58.948;2023-12-20T02:15:35;96622.50;;;-4.01;67.13
49943;BME280;36011;53.362;58.948;2023-12-20T02:18:43;96629.28;;;-3.95;66.81
49943;BME280;36011;53.362;58.948;2023-12-20T02:21:45;96626.75;;;-3.98;66.95
49943;BME280;36011;53.362;58.948;2023-12-20T02:24:50;96631.81;;;-3.92;66.57
49943;BME280;36011;53.362;58.948;2023-12-20T02:27:55;96626.78;;;-4.01;66.61
49943;BME280;36011;53.362;58.948;2023-12-20T02:30:56;96627.63;;;-4.02;66.84
49943;BME280;36011;53.362;58.948;2023-12-20T02:34:00;96621.72;;;-4.08;67.10
49943;BME280;36011;53.362;58.948;2023-12-20T02:37:07;96609.00;;;-4.20;67.23
49943;BME280;36011;53.362;58.948;2023-12-20T02:40:13;96597.06;;;-4.25;67.38
49943;BME280;36011;53.362;58.948;2023-12-20T02:43:17;96596.44;;;-4.44;68.35
49943;BME280;36011;53.362;58.948;2023-12-20T02:46:24;96598.09;;;-4.40;68.01
49943;BME280;36011;53.362;58.948;2023-12-20T02:49:28;96597.88;;;-4.19;66.90
49943;BME280;36011;53.362;58.948;2023-12-20T02:52:29;96601.34;;;-4.23;67.06
49943;BME280;36011;53.362;58.948;2023-12-20T02:55:31;96594.53;;;-4.27;67.33
49943;BME280;36011;53.362;58.948;2023-12-20T02:58:37;96587.66;;;-4.23;67.25
49943;BME280;36011;53.362;58.948;2023-12-20T03:01:45;96592.69;;;-4.17;67.28
49943;BME280;36011;53.362;58.948;2023-12-20T03:04:49;96586.75;;;-4.22;67.25
49943;BME280;36011;53.362;58.948;2023-12-20T03:07:50;96593.59;;;-4.18;67.26
49943;BME280;36011;53.362;58.948;2023-12-20T03:10:54;96606.31;;;-4.11;67.31
49943;BME280;36011;53.362;58.948;2023-12-20T03:13:58;96599.34;;;-3.99;67.08
49943;BME280;36011;53.362;58.948;2023-12-20T03:17:02;96602.78;;;-4.02;67.03
49943;BME280;36011;53.362;58.948;2023-12-20T03:20:04;96613.22;;;-4.13;67.21
49943;BME280;36011;53.362;58.948;2023-12-20T03:23:06;96589.97;;;-4.03;66.93
49943;BME280;36011;53.362;58.948;2023-12-20T03:26:08;96601.22;;;-4.14;67.54
49943;BME280;36011;53.362;58.948;2023-12-20T03:29:12;96584.16;;;-4.18;67.37
49943;BME280;36011;53.362;58.948;2023-12-20T03:32:19;96577.16;;;-4.07;67.49
49943;BME280;36011;53.362;58.948;2023-12-20T03:35:22;96573.06;;;-4.21;67.67
49943;BME280;36011;53.362;58.948;2023-12-20T03:38:24;96569.59;;;-4.17;67.67
49943;BME280;36011;53.362;58.948;2023-12-20T03:41:25;96591.13;;;-4.29;68.27
49943;BME280;36011;53.362;58.948;2023-12-20T03:44:27;96553.47;;;-4.30;68.03
49943;BME280;36011;53.362;58.948;2023-12-20T03:47:28;96557.66;;;-4.21;67.86
49943;BME280;36011;53.362;58.948;2023-12-20T03:50:31;96561.91;;;-4.19;67.44
49943;BME280;36011;53.362;58.948;2023-12-20T03:53:36;96550.91;;;-4.30;67.97
49943;BME280;36011;53.362;58.948;2023-12-20T03:56:38;96536.47;;;-4.40;68.43
49943;BME280;36011;53.362;58.948;2023-12-20T03:59:39;96542.53;;;-4.47;68.80
49943;BME280;36011;53.362;58.948;2023-12-20T04:02:47;96551.75;;;-4.31;68.60
49943;BME280;36011;53.362;58.948;2023-12-20T04:05:52;96539.22;;;-4.56;68.95
49943;BME280;36011;53.362;58.948;2023-12-20T04:08:54;96539.63;;;-4.20;68.08
49943;BME280;36011;53.362;58.948;2023-12-20T04:12:01;96547.22;;;-4.11;68.11
49943;BME280;36011;53.362;58.948;2023-12-20T04:15:02;96522.25;;;-3.99;67.40
49943;BME280;36011;53.362;58.948;2023-12-20T04:18:15;96517.44;;;-4.24;67.95
49943;BME280;36011;53.362;58.948;2023-12-20T04:21:19;96502.69;;;-4.11;67.87
49943;BME280;36011;53.362;58.948;2023-12-20T04:24:25;96510.34;;;-4.07;68.06
49943;BME280;36011;53.362;58.948;2023-12-20T04:27:27;96505.13;;;-4.00;68.46
49943;BME280;36011;53.362;58.948;2023-12-20T04:30:30;96500.16;;;-4.13;68.85
49943;BME280;36011;53.362;58.948;2023-12-20T04:33:32;96495.03;;;-4.13;68.44
49943;BME280;36011;53.362;58.948;2023-12-20T04:36:35;96497.56;;;-4.11;68.47
49943;BME280;36011;53.362;58.948;2023-12-20T04:39:36;96505.19;;;-4.03;68.16
49943;BME280;36011;53.362;58.948;2023-12-20T04:42:46;96503.44;;;-4.01;68.33
49943;BME280;36011;53.362;58.948;2023-12-20T04:45:50;96505.84;;;-3.89;67.69
49943;BME280;36011;53.362;58.948;2023-12-20T04:48:51;96499.84;;;-3.91;68.13
49943;BME280;36011;53.362;58.948;2023-12-20T04:51:55;96523.97;;;-3.98;68.21
49943;BME280;36011;53.362;58.948;2023-12-20T04:54:57;96519.53;;;-3.89;68.00
49943;BME280;36011;53.362;58.948;2023-12-20T04:57:59;96526.41;;;-3.89;67.69
49943;BME280;36011;53.362;58.948;2023-12-20T05:01:02;96518.63;;;-3.86;68.04
49943;BME280;36011;53.362;58.948;2023-12-20T05:04:06;96507.56;;;-3.91;68.08
49943;BME280;36011;53.362;58.948;2023-12-20T05:07:11;96506.78;;;-3.96;68.42
49943;BME280;36011;53.362;58.948;2023-12-20T05:10:12;96516.22;;;-3.97;68.28
49943;BME280;36011;53.362;58.948;2023-12-20T05:13:13;96517.81;;;-3.88;68.05
49943;BME280;36011;53.362;58.948;2023-12-20T05:16:17;96510.31;;;-4.03;68.69
49943;BME280;36011;53.362;58.948;2023-12-20T05:19:22;96504.06;;;-3.86;68.32
49943;BME280;36011;53.362;58.948;2023-12-20T05:22:25;96508.22;;;-3.77;67.80
49943;BME280;36011;53.362;58.948;2023-12-20T05:25:30;96496.09;;;-3.69;67.67
49943;BME280;36011;53.362;58.948;2023-12-20T05:28:32;96504.69;;;-3.70;67.89
49943;BME280;36011;53.362;58.948;2023-12-20T05:31:40;96509.78;;;-3.67;67.45
49943;BME280;36011;53.362;58.948;2023-12-20T05:34:44;96508.94;;;-3.67;67.76
49943;BME280;36011;53.362;58.948;2023-12-20T05:37:53;96511.44;;;-3.63;67.46
49943;BME280;36011;53.362;58.948;2023-12-20T05:40:56;96491.81;;;-3.68;67.92
49943;BME280;36011;53.362;58.948;2023-12-20T05:44:00;96504.75;;;-3.73;68.15
49943;BME280;36011;53.362;58.948;2023-12-20T05:47:02;96511.47;;;-3.66;68.50
49943;BME280;36011;53.362;58.948;2023-12-20T05:50:06;96486.84;;;-3.80;68.41
49943;BME280;36011;53.362;58.948;2023-12-20T05:53:10;96495.31;;;-3.74;68.64
49943;BME280;36011;53.362;58.948;2023-12-20T05:56:12;96441.63;;;-3.92;68.65
49943;BME280;36011;53.362;58.948;2023-12-20T05:59:18;96482.50;;;-3.77;69.32
49943;BME280;36011;53.362;58.948;2023-12-20T06:02:24;96470.38;;;-3.69;69.04
49943;BME280;36011;53.362;58.948;2023-12-20T06:05:26;96472.81;;;-3.59;69.42
49943;BME280;36011;53.362;58.948;2023-12-20T06:08:27;96483.75;;;-3.45;69.05
49943;BME280;36011;53.362;58.948;2023-12-20T06:11:29;96473.41;;;-3.42;69.38
49943;BME280;36011;53.362;58.948;2023-12-20T06:14:33;96462.13;;;-3.35;69.55
49943;BME280;36011;53.362;58.948;2023-12-20T06:17:37;96460.44;;;-3.36;69.90
49943;BME280;36011;53.362;58.948;2023-12-20T06:20:38;96454.19;;;-3.20;69.30
49943;BME280;36011;53.362;58.948;2023-12-20T06:23:47;96447.72;;;-2.96;69.33
49943;BME280;36011;53.362;58.948;2023-12-20T06:26:51;96436.63;;;-2.99;68.76
49943;BME280;36011;53.362;58.948;2023-12-20T06:29:52;96424.59;;;-2.97;68.97
49943;BME280;36011;53.362;58.948;2023-12-20T06:32:58;96434.91;;;-3.00;69.47
49943;BME280;36011;53.362;58.948;2023-12-20T06:36:02;96422.69;;;-2.89;69.12
49943;BME280;36011;53.362;58.948;2023-12-20T06:39:05;96448.34;;;-2.83;68.82
49943;BME280;36011;53.362;58.948;2023-12-20T06:42:10;96426.88;;;-2.83;68.97
49943;BME280;36011;53.362;58.948;2023-12-20T06:45:11;96412.25;;;-2.80;68.80
49943;BME280;36011;53.362;58.948;2023-12-20T06:48:13;96411.44;;;-2.83;68.95
49943;BME280;36011;53.362;58.948;2023-12-20T06:51:17;96423.44;;;-2.82;69.09
49943;BME280;36011;53.362;58.948;2023-12-20T06:54:23;96420.69;;;-2.75;69.24
49943;BME280;36011;53.362;58.948;2023-12-20T06:57:27;96409.56;;;-2.75;69.34
49943;BME280;36011;53.362;58.948;2023-12-20T07:00:29;96431.06;;;-2.78;69.53
49943;BME280;36011;53.362;58.948;2023-12-20T07:03:33;96381.28;;;-2.78;69.38
49943;BME280;36011;53.362;58.948;2023-12-20T07:06:37;96387.28;;;-2.76;69.52
49943;BME280;36011;53.362;58.948;2023-12-20T07:09:39;96364.06;;;-2.75;68.81
49943;BME280;36011;53.362;58.948;2023-12-20T07:12:42;96353.88;;;-2.79;69.60
49943;BME280;36011;53.362;58.948;2023-12-20T07:15:47;96370.22;;;-2.82;69.48
49943;BME280;36011;53.362;58.948;2023-12-20T07:18:49;96369.16;;;-2.72;69.47
49943;BME280;36011;53.362;58.948;2023-12-20T07:21:53;96367.44;;;-2.71;68.71
49943;BME280;36011;53.362;58.948;2023-12-20T07:24:54;96380.53;;;-2.82;68.85
49943;BME280;36011;53.362;58.948;2023-12-20T07:28:01;96373.75;;;-2.86;68.75
49943;BME280;36011;53.362;58.948;2023-12-20T07:31:05;96356.59;;;-2.87;68.51
49943;BME280;36011;53.362;58.948;2023-12-20T07:34:09;96379.75;;;-2.87;68.96
49943;BME280;36011;53.362;58.948;2023-12-20T07:37:11;96368.63;;;-2.89;68.43
49943;BME280;36011;53.362;58.948;2023-12-20T07:40:13;96346.41;;;-2.93;69.16
49943;BME280;36011;53.362;58.948;2023-12-20T07:43:17;96280.06;;;-3.21;68.67
49943;BME280;36011;53.362;58.948;2023-12-20T07:46:25;96318.53;;;-2.73;68.75
49943;BME280;36011;53.362;58.948;2023-12-20T07:49:26;96333.13;;;-2.72;68.55
49943;BME280;36011;53.362;58.948;2023-12-20T07:52:29;96318.66;;;-2.79;69.21
49943;BME280;36011;53.362;58.948;2023-12-20T07:55:30;96306.91;;;-2.90;69.46
49943;BME280;36011;53.362;58.948;2023-12-20T07:58:34;96307.47;;;-2.78;69.57
49943;BME280;36011;53.362;58.948;2023-12-20T08:01:41;96302.31;;;-2.78;69.59
49943;BME280;36011;53.362;58.948;2023-12-20T08:04:46;96298.69;;;-2.67;69.24
49943;BME280;36011;53.362;58.948;2023-12-20T08:07:47;96295.28;;;-2.69;69.46
49943;BME280;36011;53.362;58.948;2023-12-20T08:10:49;96289.91;;;-2.59;69.27
49943;BME280;36011;53.362;58.948;2023-12-20T08:13:50;96278.16;;;-2.71;69.66
49943;BME280;36011;53.362;58.948;2023-12-20T08:16:57;96280.44;;;-2.58;69.45
49943;BME280;36011;53.362;58.948;2023-12-20T08:19:58;96275.97;;;-2.50;69.59
49943;BME280;36011;53.362;58.948;2023-12-20T08:23:07;96279.94;;;-2.37;69.19
49943;BME280;36011;53.362;58.948;2023-12-20T08:26:11;96289.13;;;-2.27;68.93
49943;BME280;36011;53.362;58.948;2023-12-20T08:29:21;96273.94;;;-2.01;67.84
49943;BME280;36011;53.362;58.948;2023-12-20T08:32:27;96276.25;;;-1.91;66.77
49943;BME280;36011;53.362;58.948;2023-12-20T08:35:33;96269.69;;;-2.04;67.81
49943;BME280;36011;53.362;58.948;2023-12-20T08:38:37;96266.78;;;-1.90;67.22
49943;BME280;36011;53.362;58.948;2023-12-20T08:41:40;96267.78;;;-1.96;67.58
49943;BME280;36011;53.362;58.948;2023-12-20T08:44:45;96234.91;;;-1.88;67.29
49943;BME280;36011;53.362;58.948;2023-12-20T08:47:51;96233.38;;;-1.95;67.37
49943;BME280;36011;53.362;58.948;2023-12-20T08:50:53;96237.75;;;-1.98;67.74
49943;BME280;36011;53.362;58.948;2023-12-20T08:53:55;96220.72;;;-1.71;67.02
49943;BME280;36011;53.362;58.948;2023-12-20T08:56:59;96222.66;;;-1.79;67.16
49943;BME280;36011;53.362;58.948;2023-12-20T09:00:03;96237.19;;;-1.75;67.54
49943;BME280;36011;53.362;58.948;2023-12-20T09:03:12;96202.38;;;-1.92;68.36
49943;BME280;36011;53.362;58.948;2023-12-20T09:06:14;96219.19;;;-1.78;68.84
49943;BME280;36011;53.362;58.948;2023-12-20T09:09:19;96196.78;;;-1.76;69.56
49943;BME280;36011;53.362;58.948;2023-12-20T09:12:23;96207.09;;;-1.76;70.12
49943;BME280;36011;53.362;58.948;2023-12-20T09:15:29;96183.34;;;-1.88;70.62
49943;BME280;36011;53.362;58.948;2023-12-20T09:18:34;96172.53;;;-2.00;71.05
49943;BME280;36011;53.362;58.948;2023-12-20T09:21:36;96171.66;;;-2.01;71.72
49943;BME280;36011;53.362;58.948;2023-12-20T09:24:40;96185.19;;;-1.93;72.00
49943;BME280;36011;53.362;58.948;2023-12-20T09:27:42;96193.91;;;-1.97;71.69
49943;BME280;36011;53.362;58.948;2023-12-20T09:30:45;96174.19;;;-1.99;72.21
49943;BME280;36011;53.362;58.948;2023-12-20T09:33:51;96166.66;;;-2.07;72.21
49943;BME280;36011;53.362;58.948;2023-12-20T09:36:53;96201.81;;;-2.03;72.24
49943;BME280;36011;53.362;58.948;2023-12-20T09:39:54;96168.19;;;-2.00;72.00
49943;BME280;36011;53.362;58.948;2023-12-20T09:46:06;96197.47;;;-2.03;72.40
49943;BME280;36011;53.362;58.948;2023-12-20T09:49:12;96180.28;;;-2.02;72.57
49943;BME280;36011;53.362;58.948;2023-12-20T09:52:18;96190.19;;;-1.87;72.51
49943;BME280;36011;53.362;58.948;2023-12-20T09:55:25;96211.78;;;-1.91;72.10
49943;BME280;36011;53.362;58.948;2023-12-20T09:58:37;96181.75;;;-1.92;72.16
49943;BME280;36011;53.362;58.948;2023-12-20T10:01:39;96197.22;;;-1.92;72.37
49943;BME280;36011;53.362;58.948;2023-12-20T10:04:49;96193.66;;;-1.88;72.60
49943;BME280;36011;53.362;58.948;2023-12-20T10:07:56;96198.00;;;-1.90;73.10
49943;BME280;36011;53.362;58.948;2023-12-20T10:11:03;96192.81;;;-1.88;73.13
49943;BME280;36011;53.362;58.948;2023-12-20T10:14:08;96177.38;;;-1.90;73.13
49943;BME280;36011;53.362;58.948;2023-12-20T10:17:13;96167.03;;;-1.88;73.39
49943;BME280;36011;53.362;58.948;2023-12-20T10:20:22;96183.50;;;-1.94;73.12
49943;BME280;36011;53.362;58.948;2023-12-20T10:23:28;96176.16;;;-1.76;73.30
49943;BME280;36011;53.362;58.948;2023-12-20T10:26:34;96157.69;;;-1.92;73.95
49943;BME280;36011;53.362;58.948;2023-12-20T10:29:40;96160.22;;;-1.91;73.48
49943;BME280;36011;53.362;58.948;2023-12-20T10:32:42;96153.16;;;-1.84;73.61
49943;BME280;36011;53.362;58.948;2023-12-20T10:35:43;96147.31;;;-1.91;74.03
49943;BME280;36011;53.362;58.948;2023-12-20T10:38:48;96133.38;;;-1.84;73.35
49943;BME280;36011;53.362;58.948;2023-12-20T10:41:54;96162.38;;;-1.75;73.37
49943;BME280;36011;53.362;58.948;2023-12-20T10:44:56;96151.91;;;-1.69;72.83
49943;BME280;36011;53.362;58.948;2023-12-20T10:47:58;96150.19;;;-1.70;72.96
49943;BME280;36011;53.362;58.948;2023-12-20T10:51:06;96145.19;;;-1.76;73.81
49943;BME280;36011;53.362;58.948;2023-12-20T10:54:12;96133.13;;;-1.74;73.46
49943;BME280;36011;53.362;58.948;2023-12-20T10:57:18;96171.00;;;-1.76;73.90
49943;BME280;36011;53.362;58.948;2023-12-20T11:00:25;96145.94;;;-1.73;73.57
49943;BME280;36011;53.362;58.948;2023-12-20T11:03:35;96128.81;;;-1.74;73.63
49943;BME280;36011;53.362;58.948;2023-12-20T11:10:23;96126.34;;;-1.78;73.88
49943;BME280;36011;53.362;58.948;2023-12-20T11:13:40;96134.78;;;-1.73;73.99
49943;BME280;36011;53.362;58.948;2023-12-20T11:16:45;96131.44;;;-1.75;72.84
49943;BME280;36011;53.362;58.948;2023-12-20T11:23:00;96121.81;;;-1.70;72.99
49943;BME280;36011;53.362;58.948;2023-12-20T11:26:07;96145.13;;;-1.73;73.72
49943;BME280;36011;53.362;58.948;2023-12-20T11:29:30;96135.13;;;-1.54;72.54
49943;BME280;36011;53.362;58.948;2023-12-20T11:32:37;96138.44;;;-1.51;72.33
49943;BME280;36011;53.362;58.948;2023-12-20T11:35:41;96129.97;;;-1.54;72.36
49943;BME280;36011;53.362;58.948;2023-12-20T11:39:00;96151.44;;;-1.54;72.09
49943;BME280;36011;53.362;58.948;2023-12-20T11:42:07;96145.84;;;-1.39;71.75
49943;BME280;36011;53.362;58.948;2023-12-20T11:45:14;96142.28;;;-1.34;71.75
49943;BME280;36011;53.362;58.948;2023-12-20T11:48:20;96152.50;;;-1.31;71.49
49943;BME280;36011;53.362;58.948;2023-12-20T11:51:27;96142.47;;;-1.41;71.52
49943;BME280;36011;53.362;58.948;2023-12-20T11:54:32;96154.03;;;-1.24;71.97
49943;BME280;36011;53.362;58.948;2023-12-20T11:57:38;96136.56;;;-1.16;71.45
49943;BME280;36011;53.362;58.948;2023-12-20T12:00:48;96157.88;;;-1.09;70.88
49943;BME280;36011;53.362;58.948;2023-12-20T12:04:05;96156.94;;;-1.07;71.01
49943;BME280;36011;53.362;58.948;2023-12-20T12:07:09;96155.13;;;-1.05;70.88
49943;BME280;36011;53.362;58.948;2023-12-20T12:10:14;96157.72;;;-1.05;71.09
49943;BME280;36011;53.362;58.948;2023-12-20T12:13:20;96160.25;;;-1.02;71.01
49943;BME280;36011;53.362;58.948;2023-12-20T12:16:22;96138.56;;;-0.98;70.12
49943;BME280;36011;53.362;58.948;2023-12-20T12:19:29;96133.38;;;-0.96;70.78
49943;BME280;36011;53.362;58.948;2023-12-20T12:22:35;96129.25;;;-1.02;70.42
49943;BME280;36011;53.362;58.948;2023-12-20T12:25:40;96114.59;;;-1.01;70.66
49943;BME280;36011;53.362;58.948;2023-12-20T12:28:46;96108.59;;;-1.02;70.69
49943;BME280;36011;53.362;58.948;2023-12-20T12:31:52;96080.59;;;-0.87;70.35
49943;BME280;36011;53.362;58.948;2023-12-20T12:34:55;96033.84;;;-1.06;71.02
49943;BME280;36011;53.362;58.948;2023-12-20T12:38:01;96059.69;;;-1.06;71.99
49943;BME280;36011;53.362;58.948;2023-12-20T12:41:07;96046.53;;;-0.99;70.81
49943;BME280;36011;53.362;58.948;2023-12-20T12:44:08;96070.16;;;-0.84;70.22
49943;BME280;36011;53.362;58.948;2023-12-20T12:47:13;96064.78;;;-0.78;70.08
49943;BME280;36011;53.362;58.948;2023-12-20T12:50:14;96093.59;;;-0.64;70.10
49943;BME280;36011;53.362;58.948;2023-12-20T12:53:20;96077.97;;;-0.61;69.69
49943;BME280;36011;53.362;58.948;2023-12-20T12:56:27;96099.50;;;-0.60;69.23
49943;BME280;36011;53.362;58.948;2023-12-20T12:59:31;96088.22;;;-0.58;69.54
49943;BME280;36011;53.362;58.948;2023-12-20T13:02:36;96118.38;;;-0.58;69.47
49943;BME280;36011;53.362;58.948;2023-12-20T13:05:41;96110.50;;;-0.54;68.86
49943;BME280;36011;53.362;58.948;2023-12-20T13:08:48;96094.00;;;-0.51;69.26
49943;BME280;36011;53.362;58.948;2023-12-20T13:11:52;96135.63;;;-0.59;69.38
49943;BME280;36011;53.362;58.948;2023-12-20T13:14:54;96111.84;;;-0.43;68.67
49943;BME280;36011;53.362;58.948;2023-12-20T13:18:00;96091.41;;;-0.51;69.31
49943;BME280;36011;53.362;58.948;2023-12-20T13:21:05;96084.66;;;-0.54;69.02
49943;BME280;36011;53.362;58.948;2023-12-20T13:24:06;96093.44;;;-0.34;68.42
49943;BME280;36011;53.362;58.948;2023-12-20T13:27:12;96122.41;;;-0.25;68.48
49943;BME280;36011;53.362;58.948;2023-12-20T13:30:20;96123.25;;;-0.24;68.16
49943;BME280;36011;53.362;58.948;2023-12-20T13:33:23;96109.63;;;-0.29;68.19
49943;BME280;36011;53.362;58.948;2023-12-20T13:36:27;96128.47;;;-0.26;68.01
49943;BME280;36011;53.362;58.948;2023-12-20T13:39:28;96139.13;;;-0.10;67.74
49943;BME280;36011;53.362;58.948;2023-12-20T13:42:30;96147.00;;;-0.13;67.78
49943;BME280;36011;53.362;58.948;2023-12-20T13:45:39;96136.31;;;-0.29;68.25
49943;BME280;36011;53.362;58.948;2023-12-20T13:48:41;96121.47;;;-0.22;68.33
49943;BME280;36011;53.362;58.948;2023-12-20T13:51:45;96127.34;;;-0.17;68.21
49943;BME280;36011;53.362;58.948;2023-12-20T13:54:52;96145.97;;;-0.09;68.37
49943;BME280;36011;53.362;58.948;2023-12-20T13:57:59;96135.09;;;-0.17;68.71
49943;BME280;36011;53.362;58.948;2023-12-20T14:01:03;96123.63;;;-0.10;68.55
49943;BME280;36011;53.362;58.948;2023-12-20T14:04:10;96104.97;;;0.06;67.60
49943;BME280;36011;53.362;58.948;2023-12-20T14:07:16;96108.81;;;0.19;67.24
49943;BME280;36011;53.362;58.948;2023-12-20T14:10:22;96109.88;;;0.13;67.06
49943;BME280;36011;53.362;58.948;2023-12-20T14:13:27;96120.88;;;0.20;66.77
49943;BME280;36011;53.362;58.948;2023-12-20T14:16:29;96113.53;;;0.08;67.18
49943;BME280;36011;53.362;58.948;2023-12-20T14:19:33;96110.06;;;0.09;67.39
49943;BME280;36011;53.362;58.948;2023-12-20T14:22:35;96126.50;;;0.31;66.40
49943;BME280;36011;53.362;58.948;2023-12-20T14:25:41;96135.38;;;0.24;66.58
49943;BME280;36011;53.362;58.948;2023-12-20T14:28:47;96124.88;;;0.29;66.42
49943;BME280;36011;53.362;58.948;2023-12-20T14:31:52;96117.72;;;0.12;66.81
49943;BME280;36011;53.362;58.948;2023-12-20T14:34:55;96116.34;;;0.25;66.47
49943;BME280;36011;53.362;58.948;2023-12-20T14:38:04;96133.38;;;0.31;66.27
49943;BME280;36011;53.362;58.948;2023-12-20T14:41:08;96125.50;;;0.34;66.82
49943;BME280;36011;53.362;58.948;2023-12-20T14:44:09;96128.75;;;0.40;66.57
49943;BME280;36011;53.362;58.948;2023-12-20T14:47:13;96134.25;;;0.31;66.31
49943;BME280;36011;53.362;58.948;2023-12-20T14:50:21;96133.50;;;0.28;66.77
49943;BME280;36011;53.362;58.948;2023-12-20T14:53:22;96132.63;;;0.52;66.52
49943;BME280;36011;53.362;58.948;2023-12-20T14:56:27;96122.31;;;0.51;66.13
49943;BME280;36011;53.362;58.948;2023-12-20T14:59:33;96112.16;;;0.46;66.21
49943;BME280;36011;53.362;58.948;2023-12-20T15:02:38;96102.34;;;0.54;65.93
49943;BME280;36011;53.362;58.948;2023-12-20T15:05:41;96114.66;;;0.48;66.04
49943;BME280;36011;53.362;58.948;2023-12-20T15:08:50;96118.72;;;0.55;65.89
49943;BME280;36011;53.362;58.948;2023-12-20T15:11:58;96106.50;;;0.58;65.91
49943;BME280;36011;53.362;58.948;2023-12-20T15:15:02;96092.72;;;0.58;66.07
49943;BME280;36011;53.362;58.948;2023-12-20T15:18:09;96085.63;;;0.63;65.93
49943;BME280;36011;53.362;58.948;2023-12-20T15:21:14;96105.41;;;0.64;65.45
49943;BME280;36011;53.362;58.948;2023-12-20T15:24:19;96118.25;;;0.67;65.49
49943;BME280;36011;53.362;58.948;2023-12-20T15:27:35;96123.78;;;0.58;66.02
49943;BME280;36011;53.362;58.948;2023-12-20T15:30:41;96118.38;;;0.64;65.56
49943;BME280;36011;53.362;58.948;2023-12-20T15:33:46;96114.53;;;0.74;65.79
49943;BME280;36011;53.362;58.948;2023-12-20T15:36:52;96126.13;;;0.64;65.98
49943;BME280;36011;53.362;58.948;2023-12-20T15:39:56;96127.22;;;0.58;65.87
49943;BME280;36011;53.362;58.948;2023-12-20T15:42:57;96130.06;;;0.74;65.61
49943;BME280;36011;53.362;58.948;2023-12-20T15:46:02;96123.44;;;0.67;66.07
49943;BME280;36011;53.362;58.948;2023-12-20T15:49:05;96132.09;;;0.66;65.75
49943;BME280;36011;53.362;58.948;2023-12-20T15:52:07;96134.50;;;0.71;66.37
49943;BME280;36011;53.362;58.948;2023-12-20T15:55:11;96104.94;;;0.76;65.65
49943;BME280;36011;53.362;58.948;2023-12-20T15:58:15;96130.44;;;0.87;65.60
49943;BME280;36011;53.362;58.948;2023-12-20T16:01:22;96120.34;;;1.03;65.12
49943;BME280;36011;53.362;58.948;2023-12-20T16:04:23;96118.88;;;0.96;65.54
49943;BME280;36011;53.362;58.948;2023-12-20T16:07:28;96116.13;;;1.00;65.55
49943;BME280;36011;53.362;58.948;2023-12-20T16:10:29;96110.44;;;0.90;65.55
49943;BME280;36011;53.362;58.948;2023-12-20T16:13:36;96101.66;;;0.95;65.54